sensor_id;sensor_type;location;lat;lon;timestamp;P1;durP1;ratioP1;P2;durP2;ratioP2
6185;SDS011;3126;52.738;8.316;2022-08-01T00:01:04;4.78;;;3.85;;
6185;SDS011;3126;52.738;8.316;2022-08-01T00:06:05;4.75;;;3.97;;
6185;SDS011;3126;52.738;8.316;2022-08-01T00:11:06;6.72;;;4.43;;
6185;SDS011;3126;52.738;8.316;2022-08-01T00:16:07;4.57;;;3.50;;
6185;SDS011;3126;52.738;8.316;2022-08-01T00:21:08;5.97;;;3.90;;
6185;SDS011;3126;52.738;8.316;2022-08-01T00:26:09;4.57;;;3.42;;
6185;SDS011;3126;52.738;8.316;2022-08-01T00:31:10;5.70;;;3.38;;
6185;SDS011;3126;52.738;8.316;2022-08-01T00:36:11;3.92;;;3.20;;
6185;SDS011;3126;52.738;8.316;2022-08-01T00:41:12;4.70;;;3.90;;
6185;SDS011;3126;52.738;8.316;2022-08-01T00:46:13;3.35;;;3.03;;
6185;SDS011;3126;52.738;8.316;2022-08-01T00:51:15;5.43;;;3.92;;
6185;SDS011;3126;52.738;8.316;2022-08-01T01:01:21;5.55;;;3.25;;
6185;SDS011;3126;52.738;8.316;2022-08-01T01:06:36;3.38;;;3.08;;
6185;SDS011;3126;52.738;8.316;2022-08-01T01:11:55;5.18;;;4.40;;
6185;SDS011;3126;52.738;8.316;2022-08-01T01:17:06;4.95;;;3.83;;
6185;SDS011;3126;52.738;8.316;2022-08-01T01:22:34;6.05;;;4.60;;
6185;SDS011;3126;52.738;8.316;2022-08-01T01:33:12;8.07;;;5.05;;
6185;SDS011;3126;52.738;8.316;2022-08-01T01:38:18;8.02;;;5.68;;
6185;SDS011;3126;52.738;8.316;2022-08-01T01:43:24;7.18;;;5.55;;
6185;SDS011;3126;52.738;8.316;2022-08-01T01:48:26;8.35;;;5.80;;
6185;SDS011;3126;52.738;8.316;2022-08-01T01:53:31;7.88;;;5.45;;
6185;SDS011;3126;52.738;8.316;2022-08-01T01:58:34;8.70;;;5.65;;
6185;SDS011;3126;52.738;8.316;2022-08-01T02:09:14;5.38;;;4.00;;
6185;SDS011;3126;52.738;8.316;2022-08-01T02:14:18;6.18;;;4.60;;
6185;SDS011;3126;52.738;8.316;2022-08-01T02:19:19;5.00;;;4.50;;
6185;SDS011;3126;52.738;8.316;2022-08-01T02:29:39;5.85;;;4.63;;
6185;SDS011;3126;52.738;8.316;2022-08-01T02:34:46;5.72;;;4.90;;
6185;SDS011;3126;52.738;8.316;2022-08-01T02:45:47;6.80;;;5.35;;
6185;SDS011;3126;52.738;8.316;2022-08-01T02:50:53;6.05;;;5.00;;
6185;SDS011;3126;52.738;8.316;2022-08-01T02:55:55;8.57;;;5.55;;
6185;SDS011;3126;52.738;8.316;2022-08-01T03:00:58;7.63;;;5.78;;
6185;SDS011;3126;52.738;8.316;2022-08-01T03:05:59;7.13;;;5.10;;
6185;SDS011;3126;52.738;8.316;2022-08-01T03:11:02;9.73;;;5.85;;
6185;SDS011;3126;52.738;8.316;2022-08-01T03:16:04;6.32;;;5.32;;
6185;SDS011;3126;52.738;8.316;2022-08-01T03:21:06;7.68;;;5.53;;
6185;SDS011;3126;52.738;8.316;2022-08-01T03:26:09;8.52;;;5.63;;
6185;SDS011;3126;52.738;8.316;2022-08-01T03:31:10;6.90;;;5.50;;
6185;SDS011;3126;52.738;8.316;2022-08-01T03:36:13;7.07;;;5.55;;
6185;SDS011;3126;52.738;8.316;2022-08-01T03:41:16;8.50;;;5.45;;
6185;SDS011;3126;52.738;8.316;2022-08-01T03:46:22;7.22;;;5.53;;
6185;SDS011;3126;52.738;8.316;2022-08-01T03:51:29;8.15;;;5.47;;
6185;SDS011;3126;52.738;8.316;2022-08-01T03:56:31;6.22;;;4.68;;
6185;SDS011;3126;52.738;8.316;2022-08-01T04:01:33;6.07;;;5.45;;
6185;SDS011;3126;52.738;8.316;2022-08-01T04:06:37;7.40;;;5.15;;
6185;SDS011;3126;52.738;8.316;2022-08-01T04:11:38;6.30;;;4.82;;
6185;SDS011;3126;52.738;8.316;2022-08-01T04:16:39;6.00;;;5.03;;
6185;SDS011;3126;52.738;8.316;2022-08-01T04:21:40;5.60;;;4.20;;
6185;SDS011;3126;52.738;8.316;2022-08-01T04:26:41;5.18;;;4.20;;
6185;SDS011;3126;52.738;8.316;2022-08-01T04:31:45;4.63;;;4.07;;
6185;SDS011;3126;52.738;8.316;2022-08-01T04:36:48;5.13;;;4.65;;
6185;SDS011;3126;52.738;8.316;2022-08-01T04:41:50;5.55;;;4.43;;
6185;SDS011;3126;52.738;8.316;2022-08-01T04:46:51;7.15;;;5.43;;
6185;SDS011;3126;52.738;8.316;2022-08-01T04:51:55;7.10;;;5.68;;
6185;SDS011;3126;52.738;8.316;2022-08-01T04:57:00;5.57;;;5.00;;
6185;SDS011;3126;52.738;8.316;2022-08-01T05:02:00;8.13;;;6.45;;
6185;SDS011;3126;52.738;8.316;2022-08-01T05:07:01;7.35;;;4.95;;
6185;SDS011;3126;52.738;8.316;2022-08-01T05:12:03;3.67;;;3.38;;
6185;SDS011;3126;52.738;8.316;2022-08-01T05:17:06;3.22;;;2.92;;
6185;SDS011;3126;52.738;8.316;2022-08-01T05:27:09;4.25;;;1.83;;
6185;SDS011;3126;52.738;8.316;2022-08-01T05:32:09;3.45;;;2.08;;
6185;SDS011;3126;52.738;8.316;2022-08-01T05:37:10;2.72;;;1.80;;
6185;SDS011;3126;52.738;8.316;2022-08-01T05:42:11;4.85;;;2.30;;
6185;SDS011;3126;52.738;8.316;2022-08-01T05:47:11;2.45;;;2.08;;
6185;SDS011;3126;52.738;8.316;2022-08-01T05:52:12;5.65;;;2.10;;
6185;SDS011;3126;52.738;8.316;2022-08-01T05:57:13;2.97;;;2.17;;
6185;SDS011;3126;52.738;8.316;2022-08-01T06:02:13;4.25;;;2.25;;
6185;SDS011;3126;52.738;8.316;2022-08-01T06:07:14;3.65;;;2.60;;
6185;SDS011;3126;52.738;8.316;2022-08-01T06:12:14;8.20;;;3.70;;
6185;SDS011;3126;52.738;8.316;2022-08-01T06:17:15;5.43;;;3.35;;
6185;SDS011;3126;52.738;8.316;2022-08-01T06:22:15;7.00;;;3.05;;
6185;SDS011;3126;52.738;8.316;2022-08-01T06:27:16;6.18;;;3.50;;
6185;SDS011;3126;52.738;8.316;2022-08-01T06:32:17;7.57;;;2.92;;
6185;SDS011;3126;52.738;8.316;2022-08-01T06:37:18;4.30;;;3.50;;
6185;SDS011;3126;52.738;8.316;2022-08-01T06:42:18;6.20;;;3.40;;
6185;SDS011;3126;52.738;8.316;2022-08-01T06:47:19;5.10;;;3.83;;
6185;SDS011;3126;52.738;8.316;2022-08-01T06:52:20;6.82;;;3.45;;
6185;SDS011;3126;52.738;8.316;2022-08-01T06:57:20;6.90;;;3.88;;
6185;SDS011;3126;52.738;8.316;2022-08-01T07:02:21;7.82;;;3.40;;
6185;SDS011;3126;52.738;8.316;2022-08-01T07:07:22;8.80;;;4.35;;
6185;SDS011;3126;52.738;8.316;2022-08-01T07:12:23;17.23;;;7.80;;
6185;SDS011;3126;52.738;8.316;2022-08-01T07:17:23;10.63;;;6.60;;
6185;SDS011;3126;52.738;8.316;2022-08-01T07:22:24;6.53;;;4.28;;
6185;SDS011;3126;52.738;8.316;2022-08-01T07:27:26;6.20;;;4.03;;
6185;SDS011;3126;52.738;8.316;2022-08-01T07:32:27;9.57;;;4.63;;
6185;SDS011;3126;52.738;8.316;2022-08-01T07:37:29;7.78;;;4.88;;
6185;SDS011;3126;52.738;8.316;2022-08-01T07:42:29;9.93;;;5.63;;
6185;SDS011;3126;52.738;8.316;2022-08-01T07:47:30;10.00;;;6.93;;
6185;SDS011;3126;52.738;8.316;2022-08-01T07:52:31;7.88;;;6.07;;
6185;SDS011;3126;52.738;8.316;2022-08-01T07:57:32;10.18;;;6.70;;
6185;SDS011;3126;52.738;8.316;2022-08-01T08:02:32;8.60;;;6.80;;
6185;SDS011;3126;52.738;8.316;2022-08-01T08:07:33;11.60;;;6.80;;
6185;SDS011;3126;52.738;8.316;2022-08-01T08:12:33;10.85;;;8.00;;
6185;SDS011;3126;52.738;8.316;2022-08-01T08:17:34;11.20;;;6.78;;
6185;SDS011;3126;52.738;8.316;2022-08-01T08:22:35;14.15;;;8.35;;
6185;SDS011;3126;52.738;8.316;2022-08-01T08:27:36;11.55;;;8.00;;
6185;SDS011;3126;52.738;8.316;2022-08-01T08:32:37;13.13;;;8.32;;
6185;SDS011;3126;52.738;8.316;2022-08-01T08:37:38;10.07;;;5.72;;
6185;SDS011;3126;52.738;8.316;2022-08-01T08:42:39;9.13;;;4.22;;
6185;SDS011;3126;52.738;8.316;2022-08-01T08:47:42;10.45;;;4.75;;
6185;SDS011;3126;52.738;8.316;2022-08-01T08:52:46;8.32;;;3.33;;
6185;SDS011;3126;52.738;8.316;2022-08-01T08:57:48;6.22;;;3.28;;
6185;SDS011;3126;52.738;8.316;2022-08-01T09:02:49;6.38;;;2.95;;
6185;SDS011;3126;52.738;8.316;2022-08-01T09:13:07;7.15;;;2.90;;
6185;SDS011;3126;52.738;8.316;2022-08-01T09:23:34;9.50;;;4.40;;
6185;SDS011;3126;52.738;8.316;2022-08-01T09:28:35;7.40;;;3.40;;
6185;SDS011;3126;52.738;8.316;2022-08-01T09:33:54;8.15;;;3.63;;
6185;SDS011;3126;52.738;8.316;2022-08-01T09:38:55;6.78;;;2.55;;
6185;SDS011;3126;52.738;8.316;2022-08-01T09:43:56;6.97;;;2.80;;
6185;SDS011;3126;52.738;8.316;2022-08-01T09:53:59;8.05;;;2.42;;
6185;SDS011;3126;52.738;8.316;2022-08-01T09:59:00;8.80;;;2.30;;
6185;SDS011;3126;52.738;8.316;2022-08-01T10:04:08;7.80;;;2.72;;
6185;SDS011;3126;52.738;8.316;2022-08-01T10:09:10;6.78;;;2.40;;
6185;SDS011;3126;52.738;8.316;2022-08-01T10:14:12;6.50;;;2.42;;
6185;SDS011;3126;52.738;8.316;2022-08-01T10:19:14;9.45;;;2.47;;
6185;SDS011;3126;52.738;8.316;2022-08-01T10:24:16;7.65;;;2.65;;
6185;SDS011;3126;52.738;8.316;2022-08-01T10:29:17;4.85;;;2.60;;
6185;SDS011;3126;52.738;8.316;2022-08-01T10:34:18;10.25;;;2.50;;
6185;SDS011;3126;52.738;8.316;2022-08-01T10:39:20;8.40;;;2.83;;
6185;SDS011;3126;52.738;8.316;2022-08-01T10:44:22;8.95;;;2.35;;
6185;SDS011;3126;52.738;8.316;2022-08-01T10:49:25;8.63;;;2.20;;
6185;SDS011;3126;52.738;8.316;2022-08-01T10:54:27;10.18;;;2.40;;
6185;SDS011;3126;52.738;8.316;2022-08-01T10:59:28;7.47;;;2.33;;
6185;SDS011;3126;52.738;8.316;2022-08-01T11:04:44;6.78;;;2.03;;
6185;SDS011;3126;52.738;8.316;2022-08-01T11:09:48;5.95;;;2.10;;
6185;SDS011;3126;52.738;8.316;2022-08-01T11:20:07;5.68;;;2.40;;
6185;SDS011;3126;52.738;8.316;2022-08-01T11:25:10;5.85;;;2.28;;
6185;SDS011;3126;52.738;8.316;2022-08-01T11:35:11;6.93;;;2.45;;
6185;SDS011;3126;52.738;8.316;2022-08-01T11:40:19;9.45;;;2.42;;
6185;SDS011;3126;52.738;8.316;2022-08-01T11:45:21;6.50;;;2.33;;
6185;SDS011;3126;52.738;8.316;2022-08-01T11:50:42;8.48;;;2.35;;
6185;SDS011;3126;52.738;8.316;2022-08-01T11:55:47;7.72;;;2.50;;
6185;SDS011;3126;52.738;8.316;2022-08-01T12:00:52;10.73;;;2.60;;
6185;SDS011;3126;52.738;8.316;2022-08-01T12:05:57;6.63;;;2.50;;
6185;SDS011;3126;52.738;8.316;2022-08-01T12:10:59;4.72;;;1.75;;
6185;SDS011;3126;52.738;8.316;2022-08-01T12:16:07;8.45;;;1.90;;
6185;SDS011;3126;52.738;8.316;2022-08-01T12:21:08;5.05;;;1.90;;
6185;SDS011;3126;52.738;8.316;2022-08-01T12:26:08;5.43;;;1.92;;
6185;SDS011;3126;52.738;8.316;2022-08-01T12:31:09;6.70;;;2.25;;
6185;SDS011;3126;52.738;8.316;2022-08-01T12:36:10;4.07;;;1.70;;
6185;SDS011;3126;52.738;8.316;2022-08-01T12:41:10;5.63;;;2.10;;
6185;SDS011;3126;52.738;8.316;2022-08-01T12:46:11;6.43;;;1.98;;
6185;SDS011;3126;52.738;8.316;2022-08-01T12:51:16;4.65;;;1.75;;
6185;SDS011;3126;52.738;8.316;2022-08-01T12:56:17;4.72;;;1.75;;
6185;SDS011;3126;52.738;8.316;2022-08-01T13:01:31;6.93;;;1.90;;
6185;SDS011;3126;52.738;8.316;2022-08-01T13:06:32;6.20;;;1.75;;
6185;SDS011;3126;52.738;8.316;2022-08-01T13:11:35;3.90;;;1.88;;
6185;SDS011;3126;52.738;8.316;2022-08-01T13:16:45;7.68;;;1.83;;
6185;SDS011;3126;52.738;8.316;2022-08-01T13:21:54;5.80;;;1.60;;
6185;SDS011;3126;52.738;8.316;2022-08-01T13:26:59;7.85;;;2.15;;
6185;SDS011;3126;52.738;8.316;2022-08-01T13:32:21;8.07;;;1.75;;
6185;SDS011;3126;52.738;8.316;2022-08-01T13:37:22;3.53;;;1.40;;
6185;SDS011;3126;52.738;8.316;2022-08-01T13:42:23;2.83;;;1.38;;
6185;SDS011;3126;52.738;8.316;2022-08-01T13:47:23;3.78;;;1.60;;
6185;SDS011;3126;52.738;8.316;2022-08-01T13:52:24;5.82;;;1.55;;
6185;SDS011;3126;52.738;8.316;2022-08-01T13:57:25;7.60;;;1.92;;
6185;SDS011;3126;52.738;8.316;2022-08-01T14:02:26;5.95;;;1.70;;
6185;SDS011;3126;52.738;8.316;2022-08-01T14:07:27;5.28;;;1.73;;
6185;SDS011;3126;52.738;8.316;2022-08-01T14:12:28;7.80;;;1.90;;
6185;SDS011;3126;52.738;8.316;2022-08-01T14:17:28;4.45;;;1.55;;
6185;SDS011;3126;52.738;8.316;2022-08-01T14:22:29;8.10;;;1.75;;
6185;SDS011;3126;52.738;8.316;2022-08-01T14:27:29;5.70;;;1.65;;
6185;SDS011;3126;52.738;8.316;2022-08-01T14:32:30;10.23;;;2.03;;
6185;SDS011;3126;52.738;8.316;2022-08-01T14:42:33;3.00;;;1.65;;
6185;SDS011;3126;52.738;8.316;2022-08-01T14:47:37;2.45;;;1.40;;
6185;SDS011;3126;52.738;8.316;2022-08-01T14:52:40;5.78;;;1.73;;
6185;SDS011;3126;52.738;8.316;2022-08-01T14:57:42;8.25;;;1.63;;
6185;SDS011;3126;52.738;8.316;2022-08-01T15:02:42;6.25;;;1.55;;
6185;SDS011;3126;52.738;8.316;2022-08-01T15:07:43;7.53;;;1.88;;
6185;SDS011;3126;52.738;8.316;2022-08-01T15:12:44;5.78;;;1.55;;
6185;SDS011;3126;52.738;8.316;2022-08-01T15:17:45;4.20;;;1.60;;
6185;SDS011;3126;52.738;8.316;2022-08-01T15:22:46;4.40;;;1.65;;
6185;SDS011;3126;52.738;8.316;2022-08-01T15:27:48;3.92;;;1.92;;
6185;SDS011;3126;52.738;8.316;2022-08-01T15:32:49;3.53;;;1.50;;
6185;SDS011;3126;52.738;8.316;2022-08-01T15:37:49;4.75;;;1.17;;
6185;SDS011;3126;52.738;8.316;2022-08-01T15:42:50;5.57;;;1.42;;
6185;SDS011;3126;52.738;8.316;2022-08-01T15:47:52;2.42;;;1.92;;
6185;SDS011;3126;52.738;8.316;2022-08-01T15:52:52;8.20;;;1.95;;
6185;SDS011;3126;52.738;8.316;2022-08-01T15:57:53;3.88;;;2.13;;
6185;SDS011;3126;52.738;8.316;2022-08-01T16:02:54;3.33;;;1.83;;
6185;SDS011;3126;52.738;8.316;2022-08-01T16:07:56;2.60;;;1.27;;
6185;SDS011;3126;52.738;8.316;2022-08-01T16:12:56;4.57;;;1.50;;
6185;SDS011;3126;52.738;8.316;2022-08-01T16:17:57;3.05;;;0.95;;
6185;SDS011;3126;52.738;8.316;2022-08-01T16:22:57;2.28;;;1.17;;
6185;SDS011;3126;52.738;8.316;2022-08-01T16:27:58;3.38;;;1.50;;
6185;SDS011;3126;52.738;8.316;2022-08-01T16:32:59;4.78;;;1.20;;
6185;SDS011;3126;52.738;8.316;2022-08-01T16:38:00;3.92;;;1.27;;
6185;SDS011;3126;52.738;8.316;2022-08-01T16:43:00;8.55;;;1.40;;
6185;SDS011;3126;52.738;8.316;2022-08-01T16:48:01;4.43;;;1.52;;
6185;SDS011;3126;52.738;8.316;2022-08-01T16:53:02;6.78;;;1.70;;
6185;SDS011;3126;52.738;8.316;2022-08-01T16:58:03;4.57;;;2.17;;
6185;SDS011;3126;52.738;8.316;2022-08-01T17:03:04;6.38;;;1.73;;
6185;SDS011;3126;52.738;8.316;2022-08-01T17:08:06;6.20;;;2.08;;
6185;SDS011;3126;52.738;8.316;2022-08-01T17:13:07;3.47;;;1.80;;
6185;SDS011;3126;52.738;8.316;2022-08-01T17:18:07;3.40;;;2.30;;
6185;SDS011;3126;52.738;8.316;2022-08-01T17:23:08;4.30;;;1.90;;
6185;SDS011;3126;52.738;8.316;2022-08-01T17:28:09;5.45;;;1.27;;
6185;SDS011;3126;52.738;8.316;2022-08-01T17:33:09;3.85;;;1.55;;
6185;SDS011;3126;52.738;8.316;2022-08-01T17:38:10;3.40;;;1.38;;
6185;SDS011;3126;52.738;8.316;2022-08-01T17:43:11;1.65;;;1.10;;
6185;SDS011;3126;52.738;8.316;2022-08-01T17:48:12;3.88;;;1.13;;
6185;SDS011;3126;52.738;8.316;2022-08-01T17:53:16;3.95;;;1.40;;
6185;SDS011;3126;52.738;8.316;2022-08-01T17:58:17;2.85;;;1.38;;
6185;SDS011;3126;52.738;8.316;2022-08-01T18:03:18;4.20;;;1.10;;
6185;SDS011;3126;52.738;8.316;2022-08-01T18:08:19;7.05;;;1.67;;
6185;SDS011;3126;52.738;8.316;2022-08-01T18:13:20;5.85;;;2.10;;
6185;SDS011;3126;52.738;8.316;2022-08-01T18:18:21;4.85;;;1.92;;
6185;SDS011;3126;52.738;8.316;2022-08-01T18:23:22;5.07;;;2.20;;
6185;SDS011;3126;52.738;8.316;2022-08-01T18:28:23;4.55;;;1.88;;
6185;SDS011;3126;52.738;8.316;2022-08-01T18:33:26;7.93;;;2.30;;
6185;SDS011;3126;52.738;8.316;2022-08-01T18:38:28;5.78;;;2.10;;
6185;SDS011;3126;52.738;8.316;2022-08-01T18:43:29;8.45;;;2.80;;
6185;SDS011;3126;52.738;8.316;2022-08-01T18:48:30;8.57;;;2.65;;
6185;SDS011;3126;52.738;8.316;2022-08-01T18:53:31;6.90;;;2.33;;
6185;SDS011;3126;52.738;8.316;2022-08-01T18:58:32;4.65;;;2.08;;
6185;SDS011;3126;52.738;8.316;2022-08-01T19:03:33;8.98;;;2.55;;
6185;SDS011;3126;52.738;8.316;2022-08-01T19:08:34;3.92;;;1.88;;
6185;SDS011;3126;52.738;8.316;2022-08-01T19:18:38;7.72;;;2.67;;
6185;SDS011;3126;52.738;8.316;2022-08-01T19:23:39;10.50;;;2.60;;
6185;SDS011;3126;52.738;8.316;2022-08-01T19:29:08;8.40;;;2.80;;
6185;SDS011;3126;52.738;8.316;2022-08-01T19:34:12;5.93;;;2.92;;
6185;SDS011;3126;52.738;8.316;2022-08-01T19:39:14;8.00;;;2.55;;
6185;SDS011;3126;52.738;8.316;2022-08-01T19:44:18;7.20;;;2.90;;
6185;SDS011;3126;52.738;8.316;2022-08-01T19:49:20;11.60;;;3.40;;
6185;SDS011;3126;52.738;8.316;2022-08-01T19:54:22;6.07;;;3.00;;
6185;SDS011;3126;52.738;8.316;2022-08-01T19:59:25;10.15;;;3.58;;
6185;SDS011;3126;52.738;8.316;2022-08-01T20:04:27;9.05;;;3.08;;
6185;SDS011;3126;52.738;8.316;2022-08-01T20:09:29;5.68;;;3.08;;
6185;SDS011;3126;52.738;8.316;2022-08-01T20:14:30;7.05;;;3.58;;
6185;SDS011;3126;52.738;8.316;2022-08-01T20:19:31;9.25;;;3.22;;
6185;SDS011;3126;52.738;8.316;2022-08-01T20:24:40;11.95;;;3.03;;
6185;SDS011;3126;52.738;8.316;2022-08-01T20:29:43;7.75;;;3.42;;
6185;SDS011;3126;52.738;8.316;2022-08-01T20:34:44;7.72;;;3.22;;
6185;SDS011;3126;52.738;8.316;2022-08-01T20:39:45;7.25;;;3.42;;
6185;SDS011;3126;52.738;8.316;2022-08-01T20:44:47;8.23;;;3.40;;
6185;SDS011;3126;52.738;8.316;2022-08-01T20:49:50;5.95;;;3.80;;
6185;SDS011;3126;52.738;8.316;2022-08-01T20:54:50;7.95;;;3.22;;
6185;SDS011;3126;52.738;8.316;2022-08-01T20:59:58;6.53;;;3.08;;
6185;SDS011;3126;52.738;8.316;2022-08-01T21:10:04;7.60;;;3.70;;
6185;SDS011;3126;52.738;8.316;2022-08-01T21:15:07;8.52;;;3.55;;
6185;SDS011;3126;52.738;8.316;2022-08-01T21:20:12;8.32;;;3.70;;
6185;SDS011;3126;52.738;8.316;2022-08-01T21:25:13;7.68;;;3.70;;
6185;SDS011;3126;52.738;8.316;2022-08-01T21:30:19;8.90;;;3.97;;
6185;SDS011;3126;52.738;8.316;2022-08-01T21:35:24;8.75;;;3.65;;
6185;SDS011;3126;52.738;8.316;2022-08-01T21:40:26;6.13;;;3.83;;
6185;SDS011;3126;52.738;8.316;2022-08-01T21:45:27;7.78;;;3.45;;
6185;SDS011;3126;52.738;8.316;2022-08-01T21:50:28;6.50;;;3.92;;
6185;SDS011;3126;52.738;8.316;2022-08-01T21:55:36;5.50;;;3.33;;
6185;SDS011;3126;52.738;8.316;2022-08-01T22:00:43;6.07;;;3.65;;
6185;SDS011;3126;52.738;8.316;2022-08-01T22:05:50;6.90;;;3.08;;
6185;SDS011;3126;52.738;8.316;2022-08-01T22:10:54;13.05;;;3.95;;
6185;SDS011;3126;52.738;8.316;2022-08-01T22:15:56;6.53;;;3.75;;
6185;SDS011;3126;52.738;8.316;2022-08-01T22:20:58;4.70;;;3.15;;
6185;SDS011;3126;52.738;8.316;2022-08-01T22:25:59;6.82;;;3.60;;
6185;SDS011;3126;52.738;8.316;2022-08-01T22:31:02;5.55;;;3.00;;
6185;SDS011;3126;52.738;8.316;2022-08-01T22:36:05;7.53;;;3.58;;
6185;SDS011;3126;52.738;8.316;2022-08-01T22:46:27;6.43;;;3.33;;
6185;SDS011;3126;52.738;8.316;2022-08-01T22:56:53;10.07;;;3.88;;
6185;SDS011;3126;52.738;8.316;2022-08-01T23:01:54;7.97;;;3.85;;
6185;SDS011;3126;52.738;8.316;2022-08-01T23:06:58;8.60;;;4.05;;
6185;SDS011;3126;52.738;8.316;2022-08-01T23:12:00;7.05;;;3.70;;
6185;SDS011;3126;52.738;8.316;2022-08-01T23:17:02;5.20;;;3.80;;
6185;SDS011;3126;52.738;8.316;2022-08-01T23:22:03;8.35;;;4.10;;
6185;SDS011;3126;52.738;8.316;2022-08-01T23:27:04;9.25;;;4.53;;
6185;SDS011;3126;52.738;8.316;2022-08-01T23:32:26;10.02;;;4.78;;
6185;SDS011;3126;52.738;8.316;2022-08-01T23:37:27;9.93;;;3.92;;
6185;SDS011;3126;52.738;8.316;2022-08-01T23:42:28;5.30;;;4.25;;
6185;SDS011;3126;52.738;8.316;2022-08-01T23:47:29;8.70;;;4.22;;
6185;SDS011;3126;52.738;8.316;2022-08-01T23:52:30;7.53;;;4.53;;
6185;SDS011;3126;52.738;8.316;2022-08-01T23:57:31;7.72;;;4.60;;
